createdAt,value
2018-10-02T00:02:22.216Z,9.17
2018-10-02T00:04:51.596Z,12.77
2018-10-02T00:07:19.846Z,9.87
2018-10-02T00:09:48.108Z,14.07
2018-10-02T00:12:21.613Z,18.87
2018-10-02T00:14:49.804Z,16.63
2018-10-02T00:17:18.029Z,11.77
2018-10-02T00:19:46.239Z,9.30
2018-10-02T00:22:14.440Z,9.70
2018-10-02T00:24:42.677Z,6.53
2018-10-02T00:27:10.863Z,11.53
2018-10-02T00:29:39.025Z,9.43
2018-10-02T00:32:07.333Z,8.80
2018-10-02T00:34:35.473Z,6.40
2018-10-02T00:37:04.588Z,10.53
2018-10-02T00:39:32.833Z,14.17
2018-10-02T00:42:01.069Z,5.40
2018-10-02T00:44:29.534Z,9.47
2018-10-02T00:46:57.711Z,8.30
2018-10-02T00:49:25.876Z,5.50
2018-10-02T00:51:54.087Z,6.67
2018-10-02T00:54:22.315Z,6.87
2018-10-02T00:56:50.511Z,5.13
2018-10-02T00:59:18.738Z,9.33
2018-10-02T01:01:46.934Z,9.10
2018-10-02T01:04:15.104Z,19.97
2018-10-02T01:06:43.321Z,14.87
2018-10-02T01:09:12.550Z,16.43
2018-10-02T01:11:41.447Z,9.60
2018-10-02T01:14:09.693Z,6.27
2018-10-02T01:16:38.401Z,8.73
2018-10-02T01:19:06.630Z,14.27
2018-10-02T01:21:38.637Z,10.83
2018-10-02T01:24:06.917Z,11.37
2018-10-02T01:26:35.163Z,8.07
2018-10-02T01:29:03.346Z,8.23
2018-10-02T01:31:31.516Z,9.67
2018-10-02T01:33:59.717Z,9.77
2018-10-02T01:36:27.905Z,3.53
2018-10-02T01:38:56.087Z,8.60
2018-10-02T01:41:24.299Z,9.10
2018-10-02T01:43:52.464Z,5.63
2018-10-02T01:46:20.679Z,7.50
2018-10-02T01:48:48.853Z,13.17
2018-10-02T01:51:17.058Z,8.87
2018-10-02T01:53:45.331Z,6.17
2018-10-02T01:56:13.512Z,7.67
2018-10-02T01:58:41.713Z,6.40
2018-10-02T02:01:09.961Z,7.40
2018-10-02T02:03:38.117Z,6.47
2018-10-02T02:06:06.337Z,5.70
2018-10-02T02:08:34.776Z,7.70
2018-10-02T02:11:02.993Z,6.03
2018-10-02T02:13:31.223Z,9.77
2018-10-02T02:15:59.417Z,11.10
2018-10-02T02:18:28.174Z,10.47
2018-10-02T02:20:57.381Z,9.17
2018-10-02T02:23:25.626Z,5.87
2018-10-02T02:25:53.876Z,12.73
2018-10-02T02:28:22.072Z,10.17
2018-10-02T02:30:50.299Z,14.57
2018-10-02T02:33:18.492Z,12.17
2018-10-02T02:35:46.703Z,11.13
2018-10-02T02:38:14.890Z,6.90
2018-10-02T02:40:43.084Z,9.70
2018-10-02T02:43:11.288Z,8.13
2018-10-02T02:45:39.477Z,12.93
2018-10-02T02:48:13.110Z,6.13
2018-10-02T02:50:50.549Z,11.60
2018-10-02T02:53:19.270Z,7.80
2018-10-02T02:55:47.883Z,9.83
2018-10-02T02:58:16.078Z,6.30
2018-10-02T03:00:44.300Z,7.10
2018-10-02T03:03:12.506Z,7.30
2018-10-02T03:05:41.303Z,8.87
2018-10-02T03:08:10.189Z,5.47
2018-10-02T03:10:38.362Z,7.17
2018-10-02T03:13:06.608Z,6.17
2018-10-02T03:15:34.931Z,7.80
2018-10-02T03:18:03.112Z,8.07
2018-10-02T03:20:31.276Z,7.03
2018-10-02T03:22:59.468Z,10.37
2018-10-02T03:25:27.665Z,6.23
2018-10-02T03:27:55.859Z,8.53
2018-10-02T03:30:24.073Z,7.73
2018-10-02T03:32:52.246Z,11.03
2018-10-02T03:35:20.488Z,8.20
2018-10-02T03:37:48.767Z,6.47
2018-10-02T03:40:17.779Z,7.37
2018-10-02T03:42:46.003Z,8.50
2018-10-02T03:45:14.254Z,6.80
2018-10-02T03:47:42.449Z,7.33
2018-10-02T03:50:10.825Z,7.20
2018-10-02T03:52:39.048Z,10.70
2018-10-02T03:55:07.697Z,9.27
2018-10-02T03:57:36.306Z,8.90
2018-10-02T04:00:05.304Z,7.47
2018-10-02T04:02:33.498Z,12.67
2018-10-02T04:05:01.752Z,13.63
2018-10-02T04:07:29.948Z,7.70
2018-10-02T04:09:58.194Z,7.30
2018-10-02T04:12:26.360Z,13.17
2018-10-02T04:14:54.649Z,7.60
2018-10-02T04:17:22.906Z,6.57
2018-10-02T04:19:51.143Z,10.10
2018-10-02T04:22:19.951Z,11.23
2018-10-02T04:24:48.165Z,11.57
2018-10-02T04:27:16.445Z,10.77
2018-10-02T04:29:44.766Z,6.13
2018-10-02T04:32:13.098Z,9.60
2018-10-02T04:34:42.215Z,7.30
2018-10-02T04:37:10.548Z,9.70
2018-10-02T04:39:38.816Z,10.43
2018-10-02T04:42:07.178Z,12.90
2018-10-02T04:44:35.350Z,9.23
2018-10-02T04:47:03.586Z,7.60
2018-10-02T04:49:31.782Z,7.97
2018-10-02T04:52:00.017Z,8.67
2018-10-02T04:54:28.246Z,4.47
2018-10-02T04:56:56.497Z,5.80
2018-10-02T04:59:24.707Z,8.10
2018-10-02T05:01:52.931Z,9.13
2018-10-02T05:04:21.229Z,13.63
2018-10-02T05:06:49.495Z,5.37
2018-10-02T05:09:17.657Z,6.03
2018-10-02T05:11:45.842Z,7.47
2018-10-02T05:14:14.069Z,8.33
2018-10-02T05:16:42.257Z,9.33
2018-10-02T05:19:10.523Z,8.33
2018-10-02T05:21:38.707Z,6.47
2018-10-02T05:24:06.932Z,11.93
2018-10-02T05:26:35.144Z,25.73
2018-10-02T05:29:03.412Z,9.23
2018-10-02T05:31:31.585Z,6.67
2018-10-02T05:34:00.860Z,7.27
2018-10-02T05:36:29.224Z,6.27
2018-10-02T05:38:57.455Z,10.53
2018-10-02T05:41:25.711Z,10.20
2018-10-02T05:43:53.884Z,7.70
2018-10-02T05:46:22.140Z,6.63
2018-10-02T05:48:50.360Z,8.53
2018-10-02T05:51:18.527Z,6.93
2018-10-02T05:53:46.739Z,7.93
2018-10-02T05:56:14.961Z,6.10
2018-10-02T05:58:43.195Z,10.43
2018-10-02T06:01:11.419Z,6.53
2018-10-02T06:03:39.662Z,9.50
2018-10-02T06:06:10.595Z,10.97
2018-10-02T06:08:39.750Z,6.93
2018-10-02T06:11:07.983Z,4.43
2018-10-02T06:13:36.190Z,9.27
2018-10-02T06:16:04.430Z,5.80
2018-10-02T06:18:33.553Z,8.93
2018-10-02T06:21:01.722Z,9.07
2018-10-02T06:23:29.935Z,7.83
2018-10-02T06:25:58.138Z,5.97
2018-10-02T06:28:26.360Z,10.00
2018-10-02T06:30:54.573Z,7.30
2018-10-02T06:33:22.806Z,9.37
2018-10-02T06:35:51.040Z,6.90
2018-10-02T06:38:19.344Z,4.13
2018-10-02T06:40:47.503Z,11.03
2018-10-02T06:43:15.725Z,5.50
2018-10-02T06:45:43.894Z,4.63
2018-10-02T06:48:12.108Z,4.70
2018-10-02T06:50:40.368Z,12.23
2018-10-02T06:53:09.046Z,8.77
2018-10-02T06:55:37.281Z,6.33
2018-10-02T06:58:05.479Z,6.33
2018-10-02T07:00:33.789Z,6.07
2018-10-02T07:03:02.422Z,8.33
2018-10-02T07:05:31.479Z,6.50
2018-10-02T07:07:59.707Z,9.60
2018-10-02T07:10:27.897Z,8.37
2018-10-02T07:12:56.134Z,6.40
2018-10-02T07:15:24.309Z,7.27
2018-10-02T07:17:52.560Z,6.20
2018-10-02T07:20:20.808Z,8.70
2018-10-02T07:22:50.520Z,7.50
2018-10-02T07:25:18.768Z,8.80
2018-10-02T07:27:47.043Z,4.67
2018-10-02T07:30:15.260Z,3.77
2018-10-02T07:32:43.612Z,4.50
2018-10-02T07:35:11.719Z,8.43
2018-10-02T07:37:39.955Z,9.17
2018-10-02T07:40:08.160Z,7.27
2018-10-02T07:42:36.364Z,6.20
2018-10-02T07:45:04.651Z,4.90
2018-10-02T07:47:32.824Z,7.40
2018-10-02T07:50:01.025Z,7.33
2018-10-02T07:52:29.297Z,5.97
2018-10-02T07:54:57.476Z,6.10
2018-10-02T07:57:26.156Z,8.90
2018-10-02T07:59:54.347Z,7.33
2018-10-02T08:02:22.616Z,7.30
2018-10-02T08:04:50.851Z,4.97
2018-10-02T08:07:19.011Z,7.20
2018-10-02T08:09:47.222Z,7.10
2018-10-02T08:12:15.541Z,8.00
2018-10-02T08:14:43.694Z,7.63
2018-10-02T08:17:11.917Z,8.30
2018-10-02T08:19:40.211Z,6.27
2018-10-02T08:22:08.475Z,5.17
2018-10-02T08:24:36.785Z,6.57
2018-10-02T08:27:05.039Z,5.63
2018-10-02T08:29:33.356Z,5.27
2018-10-02T08:32:01.463Z,6.03
2018-10-02T08:34:29.692Z,7.13
2018-10-02T08:36:58.015Z,7.50
2018-10-02T08:39:26.198Z,5.70
2018-10-02T08:41:54.479Z,8.63
2018-10-02T08:44:22.673Z,7.97
2018-10-02T08:46:50.890Z,5.17
2018-10-02T08:49:19.132Z,8.30
2018-10-02T08:51:47.407Z,7.47
2018-10-02T08:54:15.622Z,7.57
2018-10-02T08:56:43.832Z,4.77
2018-10-02T08:59:12.001Z,9.87
2018-10-02T09:01:40.294Z,12.30
2018-10-02T09:04:08.541Z,6.87
2018-10-02T09:06:36.803Z,12.07
2018-10-02T09:09:08.039Z,8.33
2018-10-02T09:11:36.245Z,6.87
2018-10-02T09:14:04.469Z,6.93
2018-10-02T09:16:32.738Z,6.93
2018-10-02T09:19:00.904Z,9.57
2018-10-02T09:21:29.152Z,6.97
2018-10-02T09:23:57.368Z,5.83
2018-10-02T09:26:25.581Z,6.37
2018-10-02T09:28:53.776Z,7.53
2018-10-02T09:31:27.383Z,7.60
2018-10-02T09:34:01.061Z,8.47
2018-10-02T09:36:34.724Z,7.90
2018-10-02T09:39:08.508Z,6.47
2018-10-02T09:41:42.072Z,4.27
2018-10-02T09:44:10.251Z,10.13
2018-10-02T09:46:38.446Z,11.90
2018-10-02T09:49:06.706Z,9.90
2018-10-02T09:51:34.858Z,8.97
2018-10-02T09:54:03.095Z,8.47
2018-10-02T09:56:36.823Z,8.83
2018-10-02T09:59:05.120Z,7.87
2018-10-02T10:01:38.720Z,6.70
2018-10-02T10:04:07.050Z,7.40
2018-10-02T10:06:35.256Z,9.07
2018-10-02T10:09:04.092Z,9.23
2018-10-02T10:11:32.291Z,8.37
2018-10-02T10:14:01.492Z,9.20
2018-10-02T10:16:29.717Z,8.33
2018-10-02T10:18:57.936Z,6.17
2018-10-02T10:21:26.973Z,8.87
2018-10-02T10:23:55.183Z,5.50
2018-10-02T10:26:23.380Z,11.47
2018-10-02T10:28:51.550Z,6.60
2018-10-02T10:31:19.757Z,4.60
2018-10-02T10:33:47.980Z,7.27
2018-10-02T10:36:16.203Z,9.07
2018-10-02T10:38:44.431Z,8.87
2018-10-02T10:41:12.648Z,6.73
2018-10-02T10:43:40.849Z,7.20
2018-10-02T10:46:09.112Z,12.60
2018-10-02T10:48:38.488Z,10.23
2018-10-02T10:51:06.704Z,4.07
2018-10-02T10:53:35.165Z,5.47
2018-10-02T10:56:03.708Z,6.07
2018-10-02T10:58:31.979Z,7.00
2018-10-02T11:01:00.101Z,6.93
2018-10-02T11:03:28.292Z,6.20
2018-10-02T11:05:58.225Z,7.47
2018-10-02T11:08:26.459Z,7.00
2018-10-02T11:10:54.680Z,6.33
2018-10-02T11:13:22.959Z,7.97
2018-10-02T11:15:51.312Z,6.57
2018-10-02T11:18:20.689Z,8.50
2018-10-02T11:20:48.899Z,5.87
2018-10-02T11:23:17.094Z,6.87
2018-10-02T11:25:45.280Z,7.60
2018-10-02T11:28:13.616Z,6.47
2018-10-02T11:30:41.849Z,4.23
2018-10-02T11:33:10.017Z,5.40
2018-10-02T11:35:38.311Z,6.07
2018-10-02T11:38:06.653Z,6.30
2018-10-02T11:40:36.123Z,5.57
2018-10-02T11:43:04.342Z,4.30
2018-10-02T11:45:32.544Z,4.77
2018-10-02T11:48:00.727Z,4.97
2018-10-02T11:50:28.946Z,3.73
2018-10-02T11:52:57.159Z,3.13
2018-10-02T11:55:25.500Z,4.00
2018-10-02T11:57:53.656Z,5.53
2018-10-02T12:00:21.917Z,3.63
2018-10-02T12:02:50.039Z,2.80
2018-10-02T12:05:18.291Z,6.10
2018-10-02T12:07:46.519Z,5.07
2018-10-02T12:10:14.754Z,6.47
2018-10-02T12:12:42.995Z,3.57
2018-10-02T12:15:11.224Z,7.80
2018-10-02T12:17:39.390Z,4.80
2018-10-02T12:20:07.626Z,3.90
2018-10-02T12:22:35.825Z,5.83
2018-10-02T12:25:04.190Z,4.17
2018-10-02T12:27:32.407Z,3.83
2018-10-02T12:30:00.618Z,12.20
2018-10-02T12:32:28.798Z,2.87
2018-10-02T12:34:57.006Z,2.33
2018-10-02T12:37:25.339Z,5.47
2018-10-02T12:39:53.559Z,1.53
2018-10-02T12:42:21.782Z,1.27
2018-10-02T12:44:50.078Z,0.70
2018-10-02T12:47:18.352Z,1.60
2018-10-02T12:49:46.551Z,0.60
2018-10-02T12:52:15.037Z,0.97
2018-10-02T12:54:43.251Z,2.10
2018-10-02T12:57:11.750Z,2.10
2018-10-02T12:59:39.968Z,1.50
2018-10-02T13:02:08.175Z,1.23
2018-10-02T13:04:36.392Z,2.77
2018-10-02T13:07:04.671Z,2.73
2018-10-02T13:09:32.806Z,2.40
2018-10-02T13:12:00.990Z,1.80
2018-10-02T13:14:29.174Z,1.37
2018-10-02T13:16:57.386Z,1.63
2018-10-02T13:19:25.601Z,0.83
2018-10-02T13:21:53.803Z,1.30
2018-10-02T13:24:22.025Z,0.73
2018-10-02T13:26:50.270Z,0.70
2018-10-02T13:29:18.474Z,0.70
2018-10-02T13:31:46.675Z,0.70
2018-10-02T13:34:15.130Z,2.57
2018-10-02T13:36:43.354Z,3.20
2018-10-02T13:39:11.577Z,0.60
2018-10-02T13:41:39.860Z,2.00
2018-10-02T13:44:08.046Z,1.30
2018-10-02T13:46:36.562Z,1.97
2018-10-02T13:49:04.760Z,1.93
2018-10-02T13:51:32.963Z,0.67
2018-10-02T13:54:01.238Z,1.10
2018-10-02T13:56:29.403Z,0.53
2018-10-02T13:58:57.605Z,0.77
2018-10-02T14:01:25.886Z,1.17
2018-10-02T14:03:54.133Z,0.53
2018-10-02T14:06:22.376Z,0.83
2018-10-02T14:08:50.650Z,1.03
2018-10-02T14:11:18.962Z,1.20
2018-10-02T14:13:47.182Z,2.53
2018-10-02T14:16:15.419Z,0.70
2018-10-02T14:18:43.757Z,2.10
2018-10-02T14:21:12.041Z,1.63
2018-10-02T14:23:40.250Z,0.60
2018-10-02T14:26:08.485Z,1.10
2018-10-02T14:28:36.705Z,0.90
2018-10-02T14:31:04.953Z,0.83
2018-10-02T14:33:33.165Z,1.53
2018-10-02T14:36:01.446Z,1.73
2018-10-02T14:38:29.686Z,1.37
2018-10-02T14:40:57.971Z,1.50
2018-10-02T14:43:26.435Z,1.47
2018-10-02T14:45:54.927Z,1.27
2018-10-02T14:48:23.152Z,1.17
2018-10-02T14:50:51.431Z,1.60
2018-10-02T14:53:19.707Z,0.80
2018-10-02T14:55:47.907Z,1.20
2018-10-02T14:58:16.138Z,2.00
2018-10-02T15:00:44.356Z,4.43
2018-10-02T15:03:12.581Z,2.97
2018-10-02T15:05:40.779Z,1.50
2018-10-02T15:08:09.104Z,2.47
2018-10-02T15:10:37.308Z,1.63
2018-10-02T15:13:05.751Z,2.73
2018-10-02T15:15:34.012Z,4.27
2018-10-02T15:18:02.261Z,3.33
2018-10-02T15:20:30.498Z,5.80
2018-10-02T15:22:58.796Z,4.90
2018-10-02T15:25:26.995Z,3.63
2018-10-02T15:27:55.251Z,3.50
2018-10-02T15:30:23.414Z,9.07
2018-10-02T15:32:51.771Z,6.03
2018-10-02T15:35:20.089Z,5.07
2018-10-02T15:37:48.477Z,6.07
2018-10-02T15:40:16.572Z,7.67
2018-10-02T15:42:44.801Z,5.00
2018-10-02T15:45:13.057Z,6.13
2018-10-02T15:47:41.285Z,5.50
2018-10-02T15:50:09.525Z,6.80
2018-10-02T15:52:37.884Z,7.93
2018-10-02T15:55:06.531Z,4.77
2018-10-02T15:57:34.709Z,6.17
2018-10-02T16:00:02.902Z,6.63
2018-10-02T16:02:31.112Z,5.03
2018-10-02T16:04:59.308Z,6.53
2018-10-02T16:07:27.614Z,6.20
2018-10-02T16:09:55.796Z,6.53
2018-10-02T16:12:24.015Z,5.87
2018-10-02T16:14:52.220Z,7.73
2018-10-02T16:17:20.454Z,6.47
2018-10-02T16:19:48.709Z,6.77
2018-10-02T16:22:16.970Z,5.83
2018-10-02T16:24:45.176Z,5.97
2018-10-02T16:27:13.387Z,9.30
2018-10-02T16:29:41.631Z,8.73
2018-10-02T16:32:09.840Z,7.67
2018-10-02T16:34:48.981Z,8.17
2018-10-02T16:37:06.239Z,7.47
2018-10-02T16:39:34.453Z,7.20
2018-10-02T16:42:02.746Z,10.83
2018-10-02T16:44:30.928Z,11.00
2018-10-02T16:46:59.173Z,11.43
2018-10-02T16:49:27.416Z,9.20
2018-10-02T16:51:55.645Z,5.40
2018-10-02T16:54:23.871Z,6.63
2018-10-02T16:56:52.074Z,6.33
2018-10-02T16:59:20.238Z,9.93
2018-10-02T17:01:48.472Z,5.67
2018-10-02T17:04:16.661Z,7.50
2018-10-02T17:06:44.904Z,14.13
2018-10-02T17:09:13.145Z,7.87
2018-10-02T17:11:41.381Z,10.70
2018-10-02T17:14:09.572Z,9.47
2018-10-02T17:16:37.896Z,11.63
2018-10-02T17:19:06.381Z,8.97
2018-10-02T17:21:34.607Z,9.03
2018-10-02T17:24:02.809Z,7.87
2018-10-02T17:26:31.047Z,7.93
2018-10-02T17:28:59.319Z,18.17
2018-10-02T17:31:27.528Z,14.37
2018-10-02T17:33:55.734Z,7.73
2018-10-02T17:36:23.955Z,10.57
2018-10-02T17:38:52.210Z,7.17
2018-10-02T17:41:20.420Z,8.90
2018-10-02T17:43:48.628Z,8.77
2018-10-02T17:46:16.814Z,9.10
2018-10-02T17:48:45.048Z,10.43
2018-10-02T17:51:13.313Z,9.23
2018-10-02T17:53:41.558Z,9.37
2018-10-02T17:56:09.780Z,7.33
2018-10-02T17:58:37.965Z,10.27
2018-10-02T18:01:06.188Z,9.07
2018-10-02T18:03:34.429Z,11.30
2018-10-02T18:06:02.731Z,11.03
2018-10-02T18:08:30.937Z,9.30
2018-10-02T18:10:59.243Z,10.07
2018-10-02T18:13:27.596Z,8.57
2018-10-02T18:15:55.848Z,12.10
2018-10-02T18:18:24.105Z,7.60
2018-10-02T18:20:52.315Z,9.40
2018-10-02T18:23:20.538Z,10.87
2018-10-02T18:25:48.807Z,8.73
2018-10-02T18:28:17.017Z,8.20
2018-10-02T18:30:45.207Z,8.43
2018-10-02T18:33:13.426Z,10.23
2018-10-02T18:35:41.637Z,7.33
2018-10-02T18:38:09.896Z,8.53
2018-10-02T18:40:38.197Z,9.23
2018-10-02T18:43:06.472Z,7.60
2018-10-02T18:45:34.647Z,9.43
2018-10-02T18:48:02.881Z,10.43
2018-10-02T18:50:31.131Z,8.37
2018-10-02T18:52:59.409Z,11.27
2018-10-02T18:55:27.602Z,9.63
2018-10-02T18:57:55.807Z,13.40
2018-10-02T19:00:24.068Z,11.70
2018-10-02T19:02:52.295Z,12.77
2018-10-02T19:05:20.499Z,12.43
2018-10-02T19:07:48.726Z,12.30
2018-10-02T19:10:17.908Z,8.73
2018-10-02T19:12:46.384Z,9.40
2018-10-02T19:15:15.662Z,11.77
2018-10-02T19:17:44.149Z,8.33
2018-10-02T19:20:18.447Z,11.07
2018-10-02T19:22:47.868Z,9.87
2018-10-02T19:25:22.386Z,11.03
2018-10-02T19:27:52.015Z,11.07
2018-10-02T19:30:26.552Z,10.40
2018-10-02T19:32:55.116Z,8.83
2018-10-02T19:35:24.290Z,10.27
2018-10-02T19:37:57.947Z,11.03
2018-10-02T19:40:26.479Z,11.50
2018-10-02T19:42:55.108Z,14.57
2018-10-02T19:45:29.459Z,12.50
2018-10-02T19:47:58.764Z,13.23
2018-10-02T19:50:27.147Z,14.37
2018-10-02T19:52:55.948Z,14.83
2018-10-02T19:55:24.333Z,12.53
2018-10-02T19:57:53.236Z,15.13
2018-10-02T20:00:21.702Z,12.73
2018-10-02T20:02:50.278Z,16.87
2018-10-02T20:05:18.704Z,13.80
2018-10-02T20:07:46.969Z,12.83
2018-10-02T20:10:15.142Z,12.03
2018-10-02T20:12:43.409Z,15.23
2018-10-02T20:15:11.627Z,12.97
2018-10-02T20:17:39.956Z,19.40
2018-10-02T20:20:08.187Z,13.27
2018-10-02T20:22:36.631Z,13.00
2018-10-02T20:25:04.883Z,13.70
2018-10-02T20:27:33.133Z,15.07
2018-10-02T20:30:01.590Z,17.93
2018-10-02T20:32:30.029Z,17.77
2018-10-02T20:34:58.231Z,19.13
2018-10-02T20:37:26.899Z,18.80
2018-10-02T20:39:55.343Z,19.87
2018-10-02T20:42:23.832Z,19.93
2018-10-02T20:44:52.190Z,21.07
2018-10-02T20:47:20.405Z,21.77
2018-10-02T20:49:48.591Z,20.13
2018-10-02T20:52:16.934Z,19.63
2018-10-02T20:54:45.327Z,21.20
2018-10-02T20:57:13.451Z,23.37
2018-10-02T20:59:41.703Z,20.67
2018-10-02T21:02:09.960Z,19.93
2018-10-02T21:04:38.499Z,18.33
2018-10-02T21:07:06.856Z,19.37
2018-10-02T21:09:35.175Z,20.17
2018-10-02T21:12:03.516Z,18.87
2018-10-02T21:14:31.715Z,17.50
2018-10-02T21:16:59.959Z,17.23
2018-10-02T21:19:28.190Z,17.23
2018-10-02T21:21:56.416Z,18.83
2018-10-02T21:24:24.634Z,17.40
2018-10-02T21:26:52.962Z,16.97
2018-10-02T21:29:21.254Z,17.23
2018-10-02T21:31:49.459Z,15.47
2018-10-02T21:34:17.680Z,15.43
2018-10-02T21:36:45.908Z,19.37
2018-10-02T21:39:14.139Z,17.23
2018-10-02T21:41:42.346Z,15.67
2018-10-02T21:44:10.617Z,17.83
2018-10-02T21:46:38.831Z,17.03
2018-10-02T21:49:07.176Z,19.13
2018-10-02T21:51:35.440Z,14.53
2018-10-02T21:54:03.688Z,18.07
2018-10-02T21:56:31.931Z,15.27
2018-10-02T21:59:00.340Z,15.00
2018-10-02T22:01:30.575Z,14.47
2018-10-02T22:03:58.846Z,17.27
2018-10-02T22:06:27.068Z,14.67
2018-10-02T22:08:55.365Z,14.43
2018-10-02T22:11:23.681Z,16.90
2018-10-02T22:13:51.944Z,15.10
2018-10-02T22:16:20.192Z,16.53
2018-10-02T22:18:48.409Z,14.13
2018-10-02T22:21:16.663Z,17.27
2018-10-02T22:23:44.925Z,15.63
2018-10-02T22:26:13.169Z,16.10
2018-10-02T22:28:41.519Z,16.13
2018-10-02T22:31:09.755Z,18.93
2018-10-02T22:33:38.062Z,14.37
2018-10-02T22:36:06.475Z,16.00
2018-10-02T22:38:34.740Z,14.37
2018-10-02T22:41:03.097Z,18.67
2018-10-02T22:43:31.333Z,14.90
2018-10-02T22:45:59.585Z,14.87
2018-10-02T22:48:27.875Z,16.07
2018-10-02T22:50:56.157Z,17.27
2018-10-02T22:53:24.378Z,18.70
2018-10-02T22:55:52.747Z,17.83
2018-10-02T22:58:21.011Z,19.73
2018-10-02T23:00:49.301Z,25.20
2018-10-02T23:03:17.645Z,19.37
2018-10-02T23:05:45.894Z,22.07
2018-10-02T23:08:14.128Z,22.57
2018-10-02T23:10:42.346Z,30.93
2018-10-02T23:13:10.628Z,23.80
2018-10-02T23:15:38.903Z,23.97
2018-10-02T23:18:07.131Z,27.53
2018-10-02T23:20:35.344Z,28.10
2018-10-02T23:23:03.670Z,23.73
2018-10-02T23:25:31.943Z,26.77
2018-10-02T23:28:00.200Z,23.53
2018-10-02T23:30:28.452Z,27.53
2018-10-02T23:32:56.739Z,23.93
2018-10-02T23:35:25.077Z,22.80
2018-10-02T23:37:53.546Z,20.43
2018-10-02T23:40:21.747Z,24.43
2018-10-02T23:42:50.060Z,23.23
2018-10-02T23:45:18.495Z,24.97
2018-10-02T23:47:46.744Z,24.03
2018-10-02T23:50:14.991Z,41.00
2018-10-02T23:52:43.212Z,24.10
2018-10-02T23:55:11.419Z,21.87
2018-10-02T23:57:39.700Z,21.10
